Aeroporto :
LOGIN :

Iscrizione | Disclaimer

   EN    FR    IT 

 










Sommario :    VFR   VFR Marginale   IFR   IFR Intensivo   IFR Molto Intensivo
Visibilità : 
Base nubi : 
>= 8 km
>= 3000ft
5 / 8 km
1000 / 3000 ft
1500m / 5 km
500 / 1000 ft
800 / 1500m
200 / 500 ft
< 800m
< 200 ft
Simboli :   Temporali  Nebbia  Neve Forte  Precipitazioni Forti  Vento > 20 kt
SIGMETs :   Varie  Temporali  Ghiacco  Turbolenza  Onda orograficha  Ceneri Vulcaniche






- Altitudine del aeroporto : 622 ft
- Codice IATA : BRS


EGGD - Bristol Int.

ULTIMO METAR :
  • 231520Z AUTO 08004KT 9000 OVC012 03/01 Q1033

METARs OBSOLETI :
  • 231450Z AUTO 09004KT 9999 OVC012 03/01 Q1033
  • 231420Z AUTO 15004KT 9999 OVC011 03/00 Q1033
  • 231350Z AUTO 16004KT 130V190 9999 OVC011 02/M00 Q1033
  • 231320Z AUTO 13004KT 100V160 9999 OVC011 02/M00 Q1034
  • 231250Z AUTO 13005KT 100V190 9999 OVC011 03/00 Q1034

TAF AMD TAF EGGD
Valido dal 23 a 15 ore il 24 a 12 ore UTC


231539Z 2315/2412 13005KT 9999 OVC012
PROB30
TEMPO 2315/2317 8000 BKN009
BECMG 2317/2320 BKN007
PROB40 2320/2408 6000
BECMG 2408/2411 BKN014
ATIS : +44 1275 473 666



MetMap, La meteo Aeronautica in un colpo d'occhio ! - Copyright ORBIFLY Dicembre 2007 - Disclaimer

ORBIFLY MET'MAP TEAM :

Programmazione e sviluppo : Alexandra Zaïnal
Concezione : Baudouin d'Aumeries
Aiuto per la programmazione : Marc-Olivier Méhu
Supporto tecnico e logistico : Manuel Goepfert
Aiuto per la traduzione : Arnaldo La Scala

Contatto : metmap@orbifly.com




FONTI E CREDITI :

   NOAA